createdAt,value
2017-12-17T00:13:16.100Z,4.0
2017-12-17T00:30:03.615Z,3.9
2017-12-17T00:46:51.230Z,3.9
2017-12-17T01:03:38.713Z,3.9
2017-12-17T01:20:26.112Z,3.9
2017-12-17T01:37:13.549Z,3.9
2017-12-17T01:54:00.835Z,3.9
2017-12-17T02:10:48.170Z,3.9
2017-12-17T02:27:35.534Z,3.9
2017-12-17T02:44:22.726Z,3.9
2017-12-17T03:01:09.843Z,3.9
2017-12-17T03:17:56.929Z,3.8
2017-12-17T03:34:44.144Z,3.8
2017-12-17T03:51:31.706Z,3.8
2017-12-17T04:08:18.288Z,3.8
2017-12-17T04:25:05.307Z,3.8
2017-12-17T04:41:52.326Z,3.8
2017-12-17T04:58:39.314Z,3.8
2017-12-17T05:15:26.154Z,3.8
2017-12-17T05:32:12.997Z,3.8
2017-12-17T05:48:59.898Z,3.8
2017-12-17T06:05:46.878Z,3.8
2017-12-17T06:22:33.760Z,3.7
2017-12-17T06:39:20.688Z,3.7
2017-12-17T06:56:07.683Z,3.7
2017-12-17T07:12:54.507Z,3.7
2017-12-17T07:29:41.023Z,3.7
2017-12-17T07:46:27.602Z,3.7
2017-12-17T08:03:14.256Z,3.7
2017-12-17T08:20:01.021Z,3.7
2017-12-17T08:36:48.294Z,3.8
2017-12-17T08:53:35.458Z,3.8
2017-12-17T09:10:22.688Z,3.8
2017-12-17T09:27:10.027Z,3.8
2017-12-17T09:43:57.294Z,3.8
2017-12-17T10:00:44.379Z,3.9
2017-12-17T10:17:31.310Z,3.9
2017-12-17T10:34:18.324Z,4.0
2017-12-17T10:51:05.056Z,4.0
2017-12-17T11:07:51.940Z,4.1
2017-12-17T11:24:38.562Z,4.2
2017-12-17T11:41:25.535Z,4.3
2017-12-17T11:58:13.141Z,4.4
2017-12-17T12:15:00.767Z,4.4
2017-12-17T12:31:48.374Z,4.5
2017-12-17T12:48:36.448Z,4.5
2017-12-17T13:05:23.520Z,4.5
2017-12-17T13:22:11.063Z,4.5
2017-12-17T13:38:58.691Z,4.5
2017-12-17T13:55:46.256Z,4.4
2017-12-17T14:12:33.779Z,4.4
2017-12-17T14:22:38.304Z,4.4
2017-12-17T14:39:25.821Z,4.4
2017-12-17T14:56:13.469Z,4.4
2017-12-17T15:13:01.042Z,4.3
2017-12-17T15:29:49.068Z,4.3
2017-12-17T15:46:36.311Z,4.3
2017-12-17T16:03:24.049Z,4.3
2017-12-17T16:20:11.793Z,4.3
2017-12-17T16:36:59.559Z,4.2
2017-12-17T16:53:46.255Z,4.2
2017-12-17T17:10:33.252Z,4.2
2017-12-17T17:27:20.231Z,4.2
2017-12-17T17:44:07.306Z,4.2
2017-12-17T18:00:54.222Z,4.2
2017-12-17T18:17:42.003Z,4.2
2017-12-17T18:34:28.357Z,4.2
2017-12-17T18:51:15.497Z,4.2
2017-12-17T19:08:02.663Z,4.2
2017-12-17T19:24:50.367Z,4.1
2017-12-17T19:41:37.164Z,4.1
2017-12-17T19:58:24.416Z,4.1
2017-12-17T20:15:12.034Z,4.1
2017-12-17T20:31:59.101Z,4.1
2017-12-17T20:48:46.352Z,4.1
2017-12-17T21:05:33.751Z,4.1
2017-12-17T21:22:21.120Z,4.1
2017-12-17T21:39:08.586Z,4.1
2017-12-17T21:55:56.240Z,4.1
2017-12-17T22:12:43.737Z,4.0
2017-12-17T22:29:31.479Z,4.0
2017-12-17T22:46:18.703Z,4.0
2017-12-17T23:03:06.026Z,4.0
2017-12-17T23:19:53.491Z,4.0
2017-12-17T23:36:41.033Z,4.0
2017-12-17T23:53:28.509Z,4.0
